createdAt,value
2019-04-21T00:00:37.414Z,78.97
2019-04-21T00:03:15.265Z,76.50
2019-04-21T00:06:01.424Z,82.30
2019-04-21T00:08:44.168Z,80.87
2019-04-21T00:11:02.755Z,77.97
2019-04-21T00:13:27.941Z,81.90
2019-04-21T00:15:49.868Z,85.55
2019-04-21T00:18:25.416Z,84.83
2019-04-21T00:20:58.298Z,87.22
2019-04-21T00:23:41.200Z,86.30
2019-04-21T00:26:07.510Z,82.40
2019-04-21T00:28:51.942Z,81.35
2019-04-21T00:31:18.164Z,86.37
2019-04-21T00:33:34.350Z,82.67
2019-04-21T00:36:11.516Z,87.70
2019-04-21T00:39:09.542Z,85.15
2019-04-21T00:41:25.100Z,81.25
2019-04-21T00:43:49.151Z,83.58
2019-04-21T00:46:19.054Z,83.87
2019-04-21T00:48:59.206Z,84.10
2019-04-21T00:51:40.504Z,82.78
2019-04-21T00:54:13.109Z,86.37
2019-04-21T00:56:36.626Z,84.70
2019-04-21T00:59:05.841Z,84.83
2019-04-21T01:01:31.361Z,84.07
2019-04-21T01:04:10.137Z,84.37
2019-04-21T01:06:45.039Z,86.80
2019-04-21T01:09:07.755Z,85.32
2019-04-21T01:11:44.953Z,85.97
2019-04-21T01:14:13.447Z,89.17
2019-04-21T01:16:48.142Z,80.25
2019-04-21T01:19:13.927Z,86.90
2019-04-21T01:21:23.772Z,83.92
2019-04-21T01:23:55.736Z,82.42
2019-04-21T01:26:40.977Z,84.90
2019-04-21T01:29:12.066Z,81.02
2019-04-21T01:31:41.648Z,81.63
2019-04-21T01:34:27.510Z,83.12
2019-04-21T01:36:46.165Z,85.77
2019-04-21T01:39:29.158Z,82.30
2019-04-21T01:41:55.408Z,88.42
2019-04-21T01:44:34.876Z,84.52
2019-04-21T01:46:54.529Z,84.80
2019-04-21T01:49:18.230Z,88.00
2019-04-21T01:52:10.052Z,84.58
2019-04-21T01:54:48.181Z,83.03
2019-04-21T01:57:23.140Z,91.15
2019-04-21T01:59:54.276Z,91.00
2019-04-21T02:02:32.318Z,89.25
2019-04-21T02:05:03.452Z,88.87
2019-04-21T02:07:34.261Z,86.30
2019-04-21T02:10:07.819Z,91.37
2019-04-21T02:12:31.630Z,86.40
2019-04-21T02:15:14.256Z,90.67
2019-04-21T02:17:38.796Z,90.38
2019-04-21T02:20:00.100Z,92.08
2019-04-21T02:22:59.898Z,87.80
2019-04-21T02:25:14.017Z,85.47
2019-04-21T02:27:43.016Z,85.32
2019-04-21T02:30:18.503Z,86.95
2019-04-21T02:35:30.388Z,85.70
2019-04-21T02:40:33.565Z,87.72
2019-04-21T02:45:34.613Z,86.63
2019-04-21T02:50:33.963Z,86.25
2019-04-21T02:53:00.832Z,86.42
2019-04-21T02:55:36.681Z,89.22
2019-04-21T02:58:09.973Z,84.67
2019-04-21T03:01:00.565Z,86.45
2019-04-21T03:03:34.369Z,87.08
2019-04-21T03:08:50.120Z,91.17
2019-04-21T03:23:57.414Z,82.08
2019-04-21T03:29:00.896Z,86.85
2019-04-21T03:31:36.676Z,81.30
2019-04-21T03:38:51.317Z,80.70
2019-04-21T03:44:09.899Z,84.62
2019-04-21T03:46:32.511Z,84.67
2019-04-21T03:49:07.563Z,82.45
2019-04-21T04:01:57.726Z,87.78
2019-04-21T04:04:52.736Z,80.42
2019-04-21T04:08:09.432Z,82.47
2019-04-21T04:10:22.065Z,81.72
2019-04-21T04:12:57.707Z,83.22
2019-04-21T04:15:34.809Z,81.75
2019-04-21T04:17:57.055Z,83.33
2019-04-21T04:20:30.323Z,85.20
2019-04-21T04:23:15.045Z,84.75
2019-04-21T04:25:27.363Z,84.05
2019-04-21T04:28:14.247Z,86.97
2019-04-21T04:30:29.655Z,88.85
2019-04-21T04:32:56.476Z,85.22
2019-04-21T04:35:49.548Z,102.50
2019-04-21T04:38:07.209Z,84.03
2019-04-21T04:40:38.325Z,80.80
2019-04-21T04:43:19.894Z,86.28
2019-04-21T04:48:11.108Z,86.32
2019-04-21T04:53:40.064Z,88.45
2019-04-21T04:55:45.739Z,83.82
2019-04-21T05:01:08.544Z,87.10
2019-04-21T05:09:11.335Z,83.47
2019-04-21T05:14:16.206Z,89.05
2019-04-21T05:21:42.199Z,83.97
2019-04-21T05:24:16.318Z,84.72
2019-04-21T05:26:27.516Z,86.05
2019-04-21T05:28:56.741Z,86.10
2019-04-21T05:31:56.622Z,86.25
2019-04-21T05:34:27.649Z,96.10
2019-04-21T05:37:27.239Z,88.22
2019-04-21T05:40:10.647Z,85.17
2019-04-21T05:42:44.430Z,86.02
2019-04-21T05:45:29.714Z,87.35
2019-04-21T05:48:19.282Z,82.85
2019-04-21T05:50:34.983Z,87.67
2019-04-21T05:53:17.714Z,88.55
2019-04-21T05:55:46.371Z,81.08
2019-04-21T05:58:09.725Z,79.62
2019-04-21T06:03:26.749Z,85.28
2019-04-21T06:08:25.684Z,92.72
2019-04-21T06:11:05.139Z,86.32
2019-04-21T06:13:35.071Z,87.90
2019-04-21T06:16:02.049Z,87.05
2019-04-21T06:21:05.569Z,88.87
2019-04-21T06:23:36.794Z,83.70
2019-04-21T06:26:17.913Z,85.15
2019-04-21T06:28:41.668Z,83.62
2019-04-21T06:31:12.655Z,83.40
2019-04-21T06:33:43.157Z,85.20
2019-04-21T06:36:38.266Z,91.42
2019-04-21T06:39:17.955Z,83.47
2019-04-21T06:41:33.881Z,88.47
2019-04-21T06:44:09.478Z,89.55
2019-04-21T06:49:07.012Z,80.45
2019-04-21T06:51:35.792Z,84.42
2019-04-21T06:54:10.072Z,87.80
2019-04-21T06:56:48.348Z,78.83
2019-04-21T06:59:09.588Z,75.57
2019-04-21T07:01:49.579Z,83.95
2019-04-21T07:04:29.673Z,81.70
2019-04-21T07:06:50.014Z,81.90
2019-04-21T07:09:25.732Z,76.50
2019-04-21T07:11:50.525Z,81.70
2019-04-21T07:14:29.331Z,76.90
2019-04-21T07:17:16.038Z,82.60
2019-04-21T07:19:30.709Z,80.90
2019-04-21T07:21:51.972Z,79.80
2019-04-21T07:24:31.984Z,83.83
2019-04-21T07:26:55.365Z,79.20
2019-04-21T07:29:56.622Z,92.93
2019-04-21T07:34:36.391Z,90.13
2019-04-21T07:37:12.531Z,87.83
2019-04-21T07:39:30.082Z,84.13
2019-04-21T07:41:59.355Z,82.37
2019-04-21T07:44:28.742Z,84.60
2019-04-21T07:47:01.052Z,82.97
2019-04-21T07:53:03.677Z,79.37
2019-04-21T07:57:49.364Z,76.00
2019-04-21T08:00:29.387Z,81.50
2019-04-21T08:02:54.036Z,96.77
2019-04-21T08:05:27.941Z,84.90
2019-04-21T08:07:59.236Z,80.73
2019-04-21T08:10:27.304Z,77.97
2019-04-21T08:13:01.550Z,82.17
2019-04-21T08:15:42.274Z,77.47
2019-04-21T08:18:07.512Z,77.20
2019-04-21T08:20:34.880Z,75.87
2019-04-21T08:23:07.620Z,74.93
2019-04-21T08:25:47.681Z,74.80
2019-04-21T08:28:05.963Z,79.10
2019-04-21T08:30:55.482Z,73.27
2019-04-21T08:33:17.538Z,76.17
2019-04-21T08:36:06.029Z,75.97
2019-04-21T08:38:13.592Z,74.83
2019-04-21T08:40:43.216Z,69.03
2019-04-21T08:43:20.631Z,72.40
2019-04-21T08:45:49.346Z,71.00
2019-04-21T08:48:19.414Z,73.10
2019-04-21T08:51:00.415Z,72.47
2019-04-21T08:53:19.612Z,72.63
2019-04-21T08:56:25.435Z,70.67
2019-04-21T08:59:17.829Z,74.70
2019-04-21T09:01:48.902Z,75.10
2019-04-21T09:04:23.377Z,70.03
2019-04-21T09:07:05.140Z,71.30
2019-04-21T09:09:29.139Z,69.00
2019-04-21T09:11:59.662Z,70.53
2019-04-21T09:14:33.861Z,74.63
2019-04-21T09:16:57.725Z,71.30
2019-04-21T09:19:38.585Z,71.67
2019-04-21T09:22:00.540Z,70.07
2019-04-21T09:24:33.431Z,69.87
2019-04-21T09:27:07.149Z,67.77
2019-04-21T09:29:26.484Z,67.10
2019-04-21T09:31:51.708Z,75.50
2019-04-21T09:34:27.125Z,68.00
2019-04-21T09:36:58.761Z,67.67
2019-04-21T09:39:25.572Z,71.10
2019-04-21T09:41:57.136Z,78.00
2019-04-21T09:44:30.961Z,74.13
2019-04-21T09:46:59.685Z,67.53
2019-04-21T09:49:29.472Z,69.43
2019-04-21T09:51:57.680Z,69.93
2019-04-21T09:54:31.539Z,67.50
2019-04-21T09:57:03.322Z,68.37
2019-04-21T09:59:33.637Z,70.37
2019-04-21T10:02:08.477Z,66.27
2019-04-21T10:04:31.631Z,67.87
2019-04-21T10:07:02.346Z,68.63
2019-04-21T10:09:33.238Z,69.00
2019-04-21T10:12:03.134Z,65.10
2019-04-21T10:14:33.004Z,64.63
2019-04-21T10:17:24.755Z,56.67
2019-04-21T10:19:55.098Z,59.70
2019-04-21T10:22:24.480Z,64.97
2019-04-21T10:24:54.319Z,65.10
2019-04-21T10:27:23.699Z,68.30
2019-04-21T10:29:53.962Z,63.37
2019-04-21T10:32:25.259Z,58.33
2019-04-21T10:34:55.116Z,56.67
2019-04-21T10:37:41.302Z,66.10
2019-04-21T10:39:55.854Z,57.27
2019-04-21T10:42:25.388Z,107.53
2019-04-21T10:44:54.874Z,58.03
2019-04-21T10:47:24.803Z,67.30
2019-04-21T10:49:54.907Z,67.40
2019-04-21T10:52:33.987Z,64.77
2019-04-21T10:55:19.162Z,62.07
2019-04-21T10:57:34.899Z,65.23
2019-04-21T11:00:07.471Z,68.07
2019-04-21T11:02:41.299Z,72.67
2019-04-21T11:05:10.815Z,69.07
2019-04-21T11:07:58.934Z,60.50
2019-04-21T11:10:18.282Z,66.00
2019-04-21T11:12:47.919Z,66.07
2019-04-21T11:15:18.948Z,64.07
2019-04-21T11:17:49.207Z,66.60
2019-04-21T11:20:19.917Z,65.40
2019-04-21T11:22:49.518Z,68.43
2019-04-21T11:25:20.022Z,66.77
2019-04-21T11:27:51.082Z,62.67
2019-04-21T11:30:20.686Z,64.27
2019-04-21T11:32:51.139Z,66.30
2019-04-21T11:35:21.255Z,64.10
2019-04-21T11:37:52.159Z,63.00
2019-04-21T11:40:23.476Z,58.00
2019-04-21T11:42:53.675Z,65.90
2019-04-21T11:45:32.706Z,60.30
2019-04-21T11:48:30.593Z,67.27
2019-04-21T11:51:01.315Z,65.80
2019-04-21T11:53:30.862Z,61.50
2019-04-21T11:56:00.795Z,66.20
2019-04-21T11:58:30.282Z,64.83
2019-04-21T12:01:00.822Z,67.23
2019-04-21T12:03:31.567Z,68.30
2019-04-21T12:06:01.541Z,67.07
2019-04-21T12:08:40.187Z,66.60
2019-04-21T12:11:03.278Z,68.03
2019-04-21T12:13:34.061Z,65.07
2019-04-21T12:16:03.585Z,66.10
2019-04-21T12:18:34.016Z,65.30
2019-04-21T12:21:03.520Z,64.43
2019-04-21T12:23:34.275Z,71.00
2019-04-21T12:26:05.110Z,66.40
2019-04-21T12:28:34.883Z,67.03
2019-04-21T12:31:05.943Z,62.77
2019-04-21T12:34:03.643Z,69.00
2019-04-21T12:36:33.838Z,65.70
2019-04-21T12:39:05.557Z,60.27
2019-04-21T12:41:36.201Z,65.47
2019-04-21T12:44:06.708Z,63.03
2019-04-21T12:46:36.161Z,66.73
2019-04-21T12:49:05.633Z,69.50
2019-04-21T12:51:35.601Z,61.70
2019-04-21T12:54:05.849Z,68.30
2019-04-21T12:56:35.759Z,59.63
2019-04-21T12:59:05.222Z,65.10
2019-04-21T13:01:35.005Z,66.20
2019-04-21T13:04:05.811Z,65.73
2019-04-21T13:06:35.612Z,80.03
2019-04-21T13:09:10.772Z,61.00
2019-04-21T13:11:38.960Z,67.70
2019-04-21T13:14:08.661Z,63.63
2019-04-21T13:16:39.183Z,65.97
2019-04-21T13:19:09.336Z,64.23
2019-04-21T13:21:40.159Z,66.70
2019-04-21T13:24:09.748Z,66.67
2019-04-21T13:26:45.647Z,65.60
2019-04-21T13:29:10.289Z,63.83
2019-04-21T13:31:40.411Z,66.10
2019-04-21T13:34:10.467Z,71.40
2019-04-21T13:36:41.331Z,66.80
2019-04-21T13:42:10.690Z,70.93
2019-04-21T13:44:33.063Z,64.67
2019-04-21T13:47:03.210Z,62.80
2019-04-21T13:49:32.595Z,60.60
2019-04-21T13:52:02.683Z,63.90
2019-04-21T13:54:33.627Z,57.43
2019-04-21T13:57:04.797Z,64.20
2019-04-21T13:59:34.434Z,64.27
2019-04-21T14:02:04.774Z,70.40
2019-04-21T14:04:35.533Z,67.40
2019-04-21T14:07:06.074Z,64.90
2019-04-21T14:09:43.753Z,66.83
2019-04-21T14:12:07.628Z,68.13
2019-04-21T14:14:38.514Z,72.20
2019-04-21T14:17:08.993Z,60.80
2019-04-21T14:19:39.451Z,66.67
2019-04-21T14:22:11.705Z,70.80
2019-04-21T14:24:41.529Z,67.20
2019-04-21T14:27:12.144Z,67.90
2019-04-21T14:29:41.813Z,66.27
2019-04-21T14:32:11.221Z,69.53
2019-04-21T14:34:41.968Z,66.50
2019-04-21T14:37:12.920Z,76.50
2019-04-21T14:39:54.707Z,68.07
2019-04-21T14:42:14.069Z,65.53
2019-04-21T14:44:44.979Z,66.27
2019-04-21T14:47:27.124Z,63.97
2019-04-21T14:50:22.283Z,69.50
2019-04-21T14:53:09.938Z,64.37
2019-04-21T14:55:41.640Z,64.17
2019-04-21T14:58:11.098Z,65.73
2019-04-21T15:01:15.852Z,64.87
2019-04-21T15:03:45.653Z,62.00
2019-04-21T15:06:15.745Z,63.60
2019-04-21T15:08:45.487Z,67.03
2019-04-21T15:11:16.087Z,66.70
2019-04-21T15:13:45.935Z,65.73
2019-04-21T15:16:15.386Z,65.20
2019-04-21T15:18:46.416Z,65.47
2019-04-21T15:21:17.366Z,65.90
2019-04-21T15:23:48.368Z,62.30
2019-04-21T15:26:18.075Z,137.23
2019-04-21T15:28:48.862Z,58.53
2019-04-21T15:31:26.694Z,62.27
2019-04-21T15:33:49.620Z,63.23
2019-04-21T15:36:19.098Z,67.60
2019-04-21T15:38:50.267Z,65.50
2019-04-21T15:41:20.606Z,57.80
2019-04-21T15:43:50.805Z,65.77
2019-04-21T15:46:20.545Z,65.10
2019-04-21T15:48:50.992Z,64.40
2019-04-21T15:51:21.641Z,64.10
2019-04-21T15:53:52.005Z,62.97
2019-04-21T15:56:40.839Z,64.27
2019-04-21T15:59:26.668Z,61.83
2019-04-21T16:02:24.560Z,64.90
2019-04-21T16:04:54.856Z,63.80
2019-04-21T16:07:26.449Z,64.00
2019-04-21T16:09:57.612Z,64.47
2019-04-21T16:12:27.771Z,63.30
2019-04-21T16:14:58.694Z,64.47
2019-04-21T16:17:29.514Z,66.00
2019-04-21T16:19:59.715Z,61.57
2019-04-21T16:22:30.553Z,65.07
2019-04-21T16:25:00.905Z,60.53
2019-04-21T16:27:30.316Z,62.20
2019-04-21T16:29:59.725Z,61.97
2019-04-21T16:32:30.490Z,69.73
2019-04-21T16:35:05.325Z,66.00
2019-04-21T16:37:31.869Z,66.47
2019-04-21T16:40:01.410Z,64.37
2019-04-21T16:42:32.146Z,70.30
2019-04-21T16:45:03.136Z,64.17
2019-04-21T16:47:32.813Z,63.77
2019-04-21T16:50:03.467Z,65.47
2019-04-21T16:52:45.781Z,65.10
2019-04-21T16:55:41.462Z,64.30
2019-04-21T16:58:38.934Z,63.17
2019-04-21T17:01:14.911Z,69.10
2019-04-21T17:03:42.491Z,65.70
2019-04-21T17:06:13.230Z,62.20
2019-04-21T17:08:43.084Z,66.20
2019-04-21T17:11:19.278Z,62.47
2019-04-21T17:13:43.767Z,66.17
2019-04-21T17:16:43.438Z,66.60
2019-04-21T17:18:58.490Z,63.57
2019-04-21T17:21:16.789Z,63.03
2019-04-21T17:23:46.505Z,67.50
2019-04-21T17:26:17.083Z,68.73
2019-04-21T17:28:46.718Z,64.87
2019-04-21T17:31:16.256Z,63.50
2019-04-21T17:33:47.184Z,61.17
2019-04-21T17:36:16.875Z,65.70
2019-04-21T17:38:46.259Z,66.73
2019-04-21T17:41:25.969Z,64.17
2019-04-21T17:43:47.852Z,63.33
2019-04-21T17:46:24.541Z,65.53
2019-04-21T17:48:49.288Z,61.90
2019-04-21T17:51:49.375Z,64.97
2019-04-21T17:54:32.143Z,62.90
2019-04-21T17:57:20.272Z,61.97
2019-04-21T17:59:58.870Z,64.17
2019-04-21T18:02:23.234Z,61.30
2019-04-21T18:04:49.404Z,67.37
2019-04-21T18:07:26.535Z,65.37
2019-04-21T18:10:00.873Z,64.93
2019-04-21T18:12:32.225Z,62.77
2019-04-21T18:14:54.155Z,61.90
2019-04-21T18:17:14.708Z,65.83
2019-04-21T18:19:47.421Z,65.73
2019-04-21T18:22:36.016Z,66.87
2019-04-21T18:25:07.621Z,63.77
2019-04-21T18:27:34.482Z,65.43
2019-04-21T18:30:18.183Z,63.90
2019-04-21T18:32:48.257Z,61.20
2019-04-21T18:35:24.663Z,77.63
2019-04-21T18:38:13.294Z,68.50
2019-04-21T18:40:38.618Z,65.37
2019-04-21T18:43:48.586Z,73.40
2019-04-21T18:46:27.017Z,62.80
2019-04-21T18:49:04.589Z,63.87
2019-04-21T18:52:01.129Z,62.27
2019-04-21T18:54:41.320Z,63.23
2019-04-21T18:57:04.500Z,63.37
2019-04-21T18:59:29.830Z,63.10
2019-04-21T19:02:02.454Z,64.23
2019-04-21T19:04:30.051Z,63.83
2019-04-21T19:07:13.154Z,65.53
2019-04-21T19:12:24.072Z,61.87
2019-04-21T19:14:46.493Z,63.23
2019-04-21T19:17:48.598Z,66.47
2019-04-21T19:19:54.638Z,66.80
2019-04-21T19:22:34.125Z,68.50
2019-04-21T19:25:16.936Z,64.10
2019-04-21T19:27:31.040Z,66.67
2019-04-21T19:32:33.479Z,64.67
2019-04-21T19:34:52.599Z,64.20
2019-04-21T19:37:22.956Z,64.67
2019-04-21T19:40:03.552Z,63.60
2019-04-21T19:42:36.686Z,64.50
2019-04-21T19:45:11.799Z,71.67
2019-04-21T19:47:45.104Z,69.83
2019-04-21T19:50:16.847Z,67.30
2019-04-21T19:52:41.003Z,68.07
2019-04-21T19:55:00.590Z,69.73
2019-04-21T19:57:31.325Z,68.40
2019-04-21T20:00:05.789Z,68.07
2019-04-21T20:02:32.316Z,68.93
2019-04-21T20:05:08.853Z,71.50
2019-04-21T20:07:49.487Z,71.47
2019-04-21T20:10:26.877Z,75.27
2019-04-21T20:12:56.989Z,77.20
2019-04-21T20:15:35.849Z,68.77
2019-04-21T20:17:57.555Z,74.00
2019-04-21T20:20:13.403Z,69.40
2019-04-21T20:22:48.519Z,77.87
2019-04-21T20:25:19.960Z,80.97
2019-04-21T20:27:55.403Z,78.67
2019-04-21T20:30:37.664Z,71.57
2019-04-21T20:33:20.243Z,77.10
2019-04-21T20:35:44.757Z,70.07
2019-04-21T20:38:09.736Z,73.13
2019-04-21T20:40:35.864Z,76.93
2019-04-21T20:43:23.948Z,70.30
2019-04-21T20:45:46.052Z,77.20
2019-04-21T20:48:07.278Z,68.77
2019-04-21T20:50:43.488Z,71.17
2019-04-21T20:53:16.500Z,75.10
2019-04-21T20:55:48.572Z,77.90
2019-04-21T20:58:22.636Z,73.40
2019-04-21T21:01:18.980Z,68.63
2019-04-21T21:03:24.852Z,76.40
2019-04-21T21:05:49.700Z,73.40
2019-04-21T21:08:31.158Z,75.90
2019-04-21T21:10:53.764Z,72.60
2019-04-21T21:13:31.973Z,70.07
2019-04-21T21:16:10.170Z,69.70
2019-04-21T21:18:53.335Z,71.57
2019-04-21T21:21:01.674Z,76.80
2019-04-21T21:23:40.605Z,74.67
2019-04-21T21:26:09.490Z,76.20
2019-04-21T21:28:32.773Z,81.13
2019-04-21T21:31:07.333Z,72.40
2019-04-21T21:33:35.479Z,81.30
2019-04-21T21:36:12.411Z,75.73
2019-04-21T21:38:39.307Z,76.03
2019-04-21T21:41:04.915Z,77.20
2019-04-21T21:43:26.933Z,76.07
2019-04-21T21:45:59.021Z,78.80
2019-04-21T21:48:40.853Z,75.70
2019-04-21T21:51:05.813Z,75.40
2019-04-21T21:53:31.706Z,75.93
2019-04-21T21:56:00.688Z,76.00
2019-04-21T21:58:36.064Z,72.47
2019-04-21T22:01:04.926Z,72.70
2019-04-21T22:03:39.100Z,76.33
2019-04-21T22:06:12.014Z,69.53
2019-04-21T22:08:36.515Z,72.90
2019-04-21T22:11:07.201Z,71.40
2019-04-21T22:13:46.929Z,72.63
2019-04-21T22:16:13.875Z,69.45
2019-04-21T22:19:01.558Z,67.93
2019-04-21T22:21:27.860Z,74.67
2019-04-21T22:23:52.830Z,71.43
2019-04-21T22:26:13.363Z,72.30
2019-04-21T22:28:43.555Z,70.60
2019-04-21T22:31:18.214Z,69.20
2019-04-21T22:33:49.741Z,69.17
2019-04-21T22:36:26.740Z,69.27
2019-04-21T22:39:05.220Z,70.37
2019-04-21T22:41:26.324Z,72.17
2019-04-21T22:43:51.672Z,73.53
2019-04-21T22:46:20.222Z,72.80
2019-04-21T22:48:53.146Z,70.60
2019-04-21T22:51:30.201Z,73.97
2019-04-21T22:53:55.490Z,72.50
2019-04-21T22:56:26.856Z,68.75
2019-04-21T22:58:54.999Z,70.37
2019-04-21T23:01:33.681Z,68.97
2019-04-21T23:04:00.958Z,71.90
2019-04-21T23:06:30.893Z,70.47
2019-04-21T23:08:59.134Z,68.02
2019-04-21T23:11:37.503Z,68.47
2019-04-21T23:14:04.241Z,68.10
2019-04-21T23:16:35.324Z,68.17
2019-04-21T23:19:22.625Z,71.20
2019-04-21T23:21:55.479Z,71.28
2019-04-21T23:24:30.236Z,72.72
2019-04-21T23:26:48.626Z,72.97
2019-04-21T23:29:33.428Z,72.03
2019-04-21T23:31:55.047Z,68.28
2019-04-21T23:34:10.855Z,69.67
2019-04-21T23:36:48.052Z,73.02
2019-04-21T23:39:17.025Z,69.60
2019-04-21T23:41:46.028Z,67.00
2019-04-21T23:44:14.112Z,68.45
2019-04-21T23:46:44.426Z,66.33
2019-04-21T23:49:28.336Z,67.62
2019-04-21T23:51:54.682Z,68.52
2019-04-21T23:54:17.492Z,70.90
2019-04-21T23:56:47.841Z,67.58
2019-04-21T23:59:18.051Z,67.70
